Time;durP1;ratioP1;P1;durP2;ratioP2;P2;SDS_P1;SDS_P2;PMS_P1;PMS_P2;Temp;Humidity;BMP_temperature;BMP_pressure;BME280_temperature;BME280_humidity;BME280_pressure;Samples;Min_cycle;Max_cycle;Signal;HPM_P1;HPM_P2
2021/07/13 00:02:17;;;;;;;10.82;6.25;;;;;;;19.97;90.68;99391.72;1667254;85;20978;-74
2021/07/13 00:04:44;;;;;;;9.20;6.03;;;;;;;19.97;90.71;99389.73;1670407;85;21583;-74
2021/07/13 00:07:10;;;;;;;8.55;6.33;;;;;;;19.99;90.51;99386.56;1624785;85;21517;-73
2021/07/13 00:09:38;;;;;;;7.58;6.78;;;;;;;19.99;90.42;99389.34;1668966;85;21489;-73
2021/07/13 00:12:07;;;;;;;8.30;5.85;;;;;;;19.98;90.28;99396.91;1666862;85;21132;-72
2021/07/13 00:14:35;;;;;;;10.05;6.42;;;;;;;19.98;90.25;99398.89;1621802;87;20892;-72
2021/07/13 00:17:06;;;;;;;8.35;5.72;;;;;;;19.95;90.09;99397.67;1664444;85;21182;-73
2021/07/13 00:19:34;;;;;;;8.35;6.55;;;;;;;19.93;90.00;99395.85;1662340;85;20966;-72
2021/07/13 00:22:01;;;;;;;9.68;7.25;;;;;;;19.92;90.03;99392.05;1666902;85;21007;-73
2021/07/13 00:24:29;;;;;;;9.08;5.90;;;;;;;19.89;90.03;99389.44;1668911;85;21434;-72
2021/07/13 00:26:56;;;;;;;11.05;7.12;;;;;;;19.85;90.01;99390.59;1664451;85;20982;-73
2021/07/13 00:29:23;;;;;;;8.30;6.30;;;;;;;19.78;89.97;99395.48;1666327;85;21046;-73
2021/07/13 00:31:51;;;;;;;14.75;6.85;;;;;;;19.73;90.20;99391.65;1674290;84;20954;-73
2021/07/13 00:34:18;;;;;;;8.70;6.55;;;;;;;19.66;90.46;99390.98;1668814;85;21002;-73
2021/07/13 00:36:44;;;;;;;12.45;6.22;;;;;;;19.61;90.75;99382.98;1688624;84;21168;-73
2021/07/13 00:39:10;;;;;;;11.25;6.33;;;;;;;19.58;91.02;99388.52;1664505;84;21636;-73
2021/07/13 00:41:37;;;;;;;8.55;6.08;;;;;;;19.54;91.23;99389.86;1624190;87;21143;-73
2021/07/13 00:44:04;;;;;;;10.32;6.15;;;;;;;19.52;91.66;99398.39;1673579;85;21134;-73
2021/07/13 00:46:47;;;;;;;9.30;6.35;;;;;;;19.48;92.01;99399.70;1676769;85;21041;-73
2021/07/13 00:49:15;;;;;;;9.98;7.08;;;;;;;19.44;92.43;99404.42;1672245;85;21719;-73
2021/07/13 00:51:42;;;;;;;13.83;7.22;;;;;;;19.39;92.91;99408.92;1639683;86;21033;-73
2021/07/13 00:54:10;;;;;;;11.05;6.55;;;;;;;19.34;93.37;99412.04;1660738;85;21788;-72
2021/07/13 00:56:41;;;;;;;18.98;7.25;;;;;;;19.31;93.81;99405.84;1665539;85;20938;-73
2021/07/13 00:59:08;;;;;;;15.72;6.58;;;;;;;19.29;94.24;99405.41;1625987;85;21011;-73
2021/07/13 01:01:36;;;;;;;8.45;6.95;;;;;;;19.26;94.31;99408.95;1665508;85;21466;-73
2021/07/13 01:04:03;;;;;;;10.85;6.17;;;;;;;19.24;94.68;99407.94;1621459;87;21495;-74
2021/07/13 01:06:49;;;;;;;13.35;6.70;;;;;;;19.21;94.85;99393.97;1614743;87;21177;-74
2021/07/13 01:09:21;;;;;;;11.78;6.80;;;;;;;19.19;95.25;99386.59;1615179;87;21510;-73
2021/07/13 01:11:59;;;;;;;8.00;6.70;;;;;;;19.19;95.55;99396.33;1597504;87;21099;-73
2021/07/13 01:14:37;;;;;;;11.18;6.67;;;;;;;19.17;95.72;99407.03;1616779;87;21074;-73
2021/07/13 01:17:17;;;;;;;8.30;7.15;;;;;;;19.16;96.09;99424.31;1616811;87;21003;-73
2021/07/13 01:20:16;;;;;;;10.95;7.53;;;;;;;19.19;96.47;99415.80;1627237;87;20988;-74
2021/07/13 01:22:46;;;;;;;11.38;7.15;;;;;;;19.24;96.58;99416.88;1611647;87;21048;-73
2021/07/13 01:25:34;;;;;;;11.75;7.80;;;;;;;19.33;96.46;99413.22;1616052;87;20938;-74
2021/07/13 01:28:07;;;;;;;11.50;7.97;;;;;;;19.38;95.97;99410.91;1668688;85;20993;-74
2021/07/13 01:30:38;;;;;;;11.30;8.30;;;;;;;19.41;95.97;99409.35;1631798;85;21014;-74
2021/07/13 01:33:15;;;;;;;11.22;7.03;;;;;;;19.41;96.21;99405.98;1666723;85;21163;-74
2021/07/13 01:35:56;;;;;;;11.85;6.90;;;;;;;19.40;96.23;99406.36;1677126;85;20935;-74
2021/07/13 01:38:26;;;;;;;;;;;;;;;19.37;96.37;99402.94;1663876;85;21002;-74
2021/07/13 01:41:01;;;;;;;9.23;7.40;;;;;;;19.34;96.53;99412.04;1666345;84;20412;-74
2021/07/13 01:43:29;;;;;;;15.75;7.25;;;;;;;19.31;96.64;99412.80;1666579;85;21026;-75
2021/07/13 01:45:57;;;;;;;7.10;6.40;;;;;;;19.29;96.66;99417.94;1670170;85;21162;-75
2021/07/13 01:48:27;;;;;;;12.47;6.70;;;;;;;19.26;96.50;99424.25;1671305;85;21061;-75
2021/07/13 01:50:55;;;;;;;13.53;7.22;;;;;;;19.20;96.42;99416.82;1661316;85;20958;-74
2021/07/13 01:53:23;;;;;;;13.70;7.35;;;;;;;19.15;96.45;99424.10;1610123;87;21489;-74
2021/07/13 01:55:51;;;;;;;22.35;9.23;;;;;;;19.07;96.44;99423.20;1663995;85;21007;-74
2021/07/13 01:58:18;;;;;;;15.70;7.53;;;;;;;19.02;96.75;99425.53;1644725;85;21161;-75
2021/07/13 02:00:45;;;;;;;14.38;8.13;;;;;;;19.00;96.87;99429.27;1686716;84;20951;-75
2021/07/13 02:03:11;;;;;;;20.70;8.78;;;;;;;18.97;97.20;99426.66;1664268;86;21466;-75
2021/07/13 02:05:38;;;;;;;15.38;7.65;;;;;;;18.94;97.44;99422.42;1666969;85;20999;-73
2021/07/13 02:08:05;;;;;;;13.88;8.45;;;;;;;18.92;97.78;99423.39;1670399;85;21439;-73
2021/07/13 02:10:32;;;;;;;11.45;7.53;;;;;;;18.90;98.11;99426.55;1667195;85;21126;-72
2021/07/13 02:12:59;;;;;;;13.80;9.23;;;;;;;18.89;98.48;99423.55;1667301;85;21066;-73
2021/07/13 02:15:27;;;;;;;13.30;8.20;;;;;;;18.89;98.84;99420.77;1667478;84;21006;-73
2021/07/13 02:17:53;;;;;;;13.95;7.78;;;;;;;18.91;98.93;99421.78;1617003;86;21045;-73
2021/07/13 02:20:21;;;;;;;19.35;9.40;;;;;;;18.94;98.91;99413.50;1630624;85;21405;-74
2021/07/13 02:22:48;;;;;;;12.20;7.72;;;;;;;18.97;98.91;99427.24;1667297;85;21128;-74
2021/07/13 02:25:14;;;;;;;15.68;8.33;;;;;;;19.00;98.71;99423.71;1667044;85;20923;-74
2021/07/13 02:27:45;;;;;;;12.68;8.28;;;;;;;19.01;98.65;99434.47;1667168;85;20947;-73
2021/07/13 02:30:15;;;;;;;17.23;7.97;;;;;;;19.05;98.93;99429.75;1629551;85;20962;-73
2021/07/13 02:32:53;;;;;;;10.65;7.90;;;;;;;19.10;99.23;99428.02;1667344;85;21085;-73
2021/07/13 02:35:29;;;;;;;9.85;6.78;;;;;;;19.14;99.24;99429.45;1626553;85;21193;-73
2021/07/13 02:37:56;;;;;;;10.80;7.37;;;;;;;19.17;99.21;99436.25;1664016;85;21069;-73
2021/07/13 02:40:22;;;;;;;11.53;8.58;;;;;;;19.18;99.35;99439.25;1669216;85;21585;-72
2021/07/13 02:42:48;;;;;;;12.43;8.28;;;;;;;19.19;99.44;99442.24;1678203;85;21090;-73
2021/07/13 02:45:16;;;;;;;13.58;8.13;;;;;;;19.22;99.52;99437.31;1652319;86;21086;-75
2021/07/13 02:47:46;;;;;;;10.72;7.20;;;;;;;19.24;99.53;99443.31;1661334;85;21986;-75
2021/07/13 02:50:16;;;;;;;11.75;7.92;;;;;;;19.28;99.91;99438.59;1667793;85;20955;-75
2021/07/13 02:52:44;;;;;;;17.83;7.50;;;;;;;19.32;100.00;99436.66;1667550;84;20942;-75
2021/07/13 02:55:17;;;;;;;13.50;8.80;;;;;;;19.33;100.00;99439.07;1663459;85;21219;-75
2021/07/13 02:57:47;;;;;;;12.03;7.95;;;;;;;19.37;100.00;99432.97;1648740;85;21550;-75
2021/07/13 03:00:15;;;;;;;10.82;7.12;;;;;;;19.42;100.00;99434.03;1666890;85;21135;-75
2021/07/13 03:02:44;;;;;;;13.98;8.13;;;;;;;19.49;100.00;99432.52;1678158;85;21025;-74
2021/07/13 03:05:13;;;;;;;11.35;7.05;;;;;;;19.53;100.00;99436.98;1675142;85;20962;-74
2021/07/13 03:07:39;;;;;;;18.45;7.90;;;;;;;19.59;100.00;99442.43;1666508;85;21586;-74
2021/07/13 03:10:08;;;;;;;15.08;8.20;;;;;;;19.65;100.00;99440.89;1664392;85;21200;-74
2021/07/13 03:12:35;;;;;;;14.10;7.05;;;;;;;19.74;99.76;99439.20;1665438;85;21793;-74
2021/07/13 03:15:03;;;;;;;13.22;8.43;;;;;;;19.83;99.17;99433.34;1673375;85;20982;-74
2021/07/13 03:17:30;;;;;;;11.65;7.28;;;;;;;19.91;99.00;99435.03;1666175;85;20904;-75
2021/07/13 03:19:57;;;;;;;9.95;7.03;;;;;;;19.94;98.55;99435.66;1687598;84;20955;-75
2021/07/13 03:22:28;;;;;;;19.23;8.58;;;;;;;19.96;98.46;99438.27;1665274;86;21478;-74
2021/07/13 03:24:54;;;;;;;14.73;7.30;;;;;;;19.96;98.48;99439.67;1667169;85;21864;-73
2021/07/13 03:27:21;;;;;;;10.98;7.97;;;;;;;19.98;98.13;99440.68;1629547;86;21515;-75
2021/07/13 03:29:49;;;;;;;14.93;7.42;;;;;;;20.00;98.07;99441.10;1631047;86;21082;-74
2021/07/13 03:32:16;;;;;;;14.58;7.28;;;;;;;20.03;97.94;99442.53;1663110;86;21667;-74
2021/07/13 03:34:44;;;;;;;19.75;8.15;;;;;;;20.04;97.59;99443.33;1671171;85;21029;-74
2021/07/13 03:37:12;;;;;;;16.52;8.05;;;;;;;20.03;97.17;99448.11;1677540;85;21224;-74
2021/07/13 03:39:39;;;;;;;16.45;7.45;;;;;;;20.02;97.16;99449.88;1672764;85;20898;-74
2021/07/13 03:42:05;;;;;;;13.03;8.15;;;;;;;20.02;96.49;99444.31;1679434;85;20964;-74
2021/07/13 03:44:32;;;;;;;17.77;8.40;;;;;;;20.01;96.41;99441.31;1687381;85;20999;-72
2021/07/13 03:47:00;;;;;;;17.00;8.75;;;;;;;20.06;96.45;99444.56;1670288;83;21087;-73
2021/07/13 03:49:27;;;;;;;14.78;9.25;;;;;;;20.10;96.21;99437.03;1685878;83;21899;-72
2021/07/13 03:51:53;;;;;;;13.58;9.00;;;;;;;20.15;95.70;99437.28;1677165;85;20935;-72
2021/07/13 03:54:20;;;;;;;18.10;9.63;;;;;;;20.21;96.00;99432.97;1675314;84;21481;-74
2021/07/13 03:56:50;;;;;;;17.67;10.00;;;;;;;20.28;95.90;99424.65;1674657;84;21075;-78
2021/07/13 03:59:17;;;;;;;14.98;9.43;;;;;;;20.38;95.76;99429.56;1676580;84;21598;-79
2021/07/13 04:01:45;;;;;;;9.80;7.83;;;;;;;20.45;95.20;99428.82;1674062;84;21181;-78
2021/07/13 04:04:12;;;;;;;12.47;8.80;;;;;;;20.50;94.88;99431.26;1677303;85;21013;-78
2021/07/13 04:06:38;;;;;;;15.78;8.78;;;;;;;20.55;94.78;99433.70;1674487;84;20997;-77
2021/07/13 04:09:06;;;;;;;10.03;8.10;;;;;;;20.61;94.36;99427.97;1675356;84;21097;-75
2021/07/13 04:11:35;;;;;;;10.15;7.58;;;;;;;20.66;93.90;99428.20;1675356;85;20942;-78
2021/07/13 04:14:04;;;;;;;9.85;6.85;;;;;;;20.69;93.50;99422.66;1676347;85;20942;-79
2021/07/13 04:16:30;;;;;;;12.37;7.35;;;;;;;20.75;93.62;99423.10;1669030;84;21579;-79
2021/07/13 04:18:58;;;;;;;12.03;7.37;;;;;;;20.79;93.22;99432.30;1673673;84;21120;-80
2021/07/13 04:21:25;;;;;;;13.22;7.45;;;;;;;20.81;92.73;99431.28;1669207;85;21032;-77
2021/07/13 04:23:53;;;;;;;10.30;6.92;;;;;;;20.84;92.60;99434.70;1677454;85;20941;-81
2021/07/13 04:26:19;;;;;;;12.73;7.22;;;;;;;20.88;92.59;99435.53;1676700;85;21557;-79
2021/07/13 04:28:46;;;;;;;8.43;6.58;;;;;;;20.93;92.76;99434.37;1674708;85;21009;-79
2021/07/13 04:31:14;;;;;;;12.13;6.10;;;;;;;21.00;92.61;99435.22;1674771;85;21036;-77
2021/07/13 04:33:40;;;;;;;8.28;6.90;;;;;;;21.04;92.00;99430.46;1674387;85;21476;-79
2021/07/13 04:36:07;;;;;;;7.67;6.22;;;;;;;21.06;90.72;99430.08;1673813;85;21575;-78
2021/07/13 04:38:35;;;;;;;14.30;7.45;;;;;;;21.03;89.99;99427.47;1675069;84;21016;-79
2021/07/13 04:41:01;;;;;;;12.35;6.97;;;;;;;21.06;90.19;99437.85;1676799;84;23292;-80
2021/07/13 04:43:27;;;;;;;8.63;6.72;;;;;;;21.07;89.55;99434.47;1670512;85;21076;-80
2021/07/13 04:45:55;;;;;;;10.20;6.47;;;;;;;21.07;89.06;99442.25;1664547;84;21072;-80
2021/07/13 04:48:22;;;;;;;12.65;7.00;;;;;;;21.12;88.95;99443.88;1675861;85;21003;-80
2021/07/13 04:50:49;;;;;;;9.70;6.87;;;;;;;21.18;88.70;99444.30;1676205;84;21183;-80
2021/07/13 04:53:15;;;;;;;7.92;6.78;;;;;;;21.21;88.43;99448.55;1675536;85;20968;-81
2021/07/13 04:55:43;;;;;;;10.88;7.05;;;;;;;21.23;87.78;99445.36;1674271;85;21036;-81
2021/07/13 04:58:09;;;;;;;8.70;7.42;;;;;;;21.21;87.41;99444.92;1671093;84;20960;-82
2021/07/13 05:00:36;;;;;;;9.78;7.22;;;;;;;21.20;87.55;99441.92;1675637;84;21480;-81
2021/07/13 05:03:02;;;;;;;15.53;7.30;;;;;;;21.20;87.44;99441.92;1663314;85;21795;-81
2021/07/13 05:05:29;;;;;;;9.80;7.75;;;;;;;21.18;87.91;99444.30;1673398;84;20960;-81
2021/07/13 05:07:55;;;;;;;8.90;6.28;;;;;;;21.22;87.93;99436.78;1675433;85;20970;-81
2021/07/13 05:10:21;;;;;;;8.93;6.78;;;;;;;21.29;87.97;99442.41;1676994;85;22218;-78
2021/07/13 05:12:49;;;;;;;8.93;7.00;;;;;;;21.34;87.47;99444.84;1673548;85;21107;-78
2021/07/13 05:15:16;;;;;;;11.90;8.33;;;;;;;21.35;87.51;99447.83;1671341;84;21161;-81
2021/07/13 05:17:42;;;;;;;13.00;7.97;;;;;;;21.39;88.01;99450.02;1669157;84;21076;-80
2021/07/13 05:20:13;;;;;;;13.18;7.60;;;;;;;21.43;88.25;99446.05;1676670;84;20977;-81
2021/07/13 05:22:41;;;;;;;9.18;6.95;;;;;;;21.54;87.90;99439.13;1670496;84;20961;-71
2021/07/13 05:25:11;;;;;;;10.08;6.65;;;;;;;21.60;87.30;99437.56;1679660;84;20964;-81
2021/07/13 05:27:39;;;;;;;9.28;6.22;;;;;;;21.70;87.78;99441.59;1667179;84;21141;-84
2021/07/13 05:30:07;;;;;;;11.05;6.28;;;;;;;21.86;87.58;99437.87;1649350;86;20932;-83
2021/07/13 05:32:33;;;;;;;11.53;7.33;;;;;;;22.06;86.98;99441.12;1647033;85;21080;-84
2021/07/13 05:35:00;;;;;;;7.37;6.28;;;;;;;22.30;85.93;99439.59;1645396;85;21173;-74
2021/07/13 05:37:27;;;;;;;7.87;6.05;;;;;;;22.54;84.19;99436.59;1611494;87;21588;-81
2021/07/13 05:39:53;;;;;;;7.28;5.85;;;;;;;22.72;82.09;99441.59;1596171;88;21153;-80
2021/07/13 05:42:22;;;;;;;8.05;5.78;;;;;;;22.90;80.44;99434.02;1596302;87;21029;-76
2021/07/13 05:44:48;;;;;;;6.80;4.62;;;;;;;23.11;78.47;99428.20;1591332;88;21029;-80
2021/07/13 05:47:14;;;;;;;13.70;5.92;;;;;;;23.29;78.13;99432.53;1662398;85;21029;-79
2021/07/13 05:49:42;;;;;;;6.22;4.85;;;;;;;23.48;76.72;99429.88;1638372;86;20975;-85
2021/07/13 05:52:09;;;;;;;7.30;4.78;;;;;;;23.67;74.91;99436.45;1640583;86;21103;-83
2021/07/13 05:54:35;;;;;;;6.80;4.62;;;;;;;23.79;73.84;99432.37;1593988;88;21494;-83
2021/07/13 05:57:02;;;;;;;7.40;4.53;;;;;;;23.93;73.13;99437.11;1665912;84;21533;-72
2021/07/13 05:59:30;;;;;;;6.65;4.78;;;;;;;24.03;71.67;99428.64;1647417;84;21221;-76
2021/07/13 06:01:57;;;;;;;8.55;4.83;;;;;;;24.15;71.37;99429.38;1679702;84;21013;-74
2021/07/13 06:04:24;;;;;;;5.60;4.85;;;;;;;24.23;71.72;99436.55;1676416;84;21101;-75
2021/07/13 06:06:50;;;;;;;5.70;5.00;;;;;;;24.33;71.12;99432.88;1667249;84;20933;-70
2021/07/13 06:09:17;;;;;;;11.83;6.10;;;;;;;24.43;70.97;99438.22;1679150;85;21005;-72
2021/07/13 06:11:45;;;;;;;9.75;6.20;;;;;;;24.48;70.81;99442.00;1666653;84;21482;-73
2021/07/13 06:14:12;;;;;;;8.15;6.30;;;;;;;24.53;71.10;99444.36;1673987;84;20913;-74
2021/07/13 06:16:39;;;;;;;11.10;6.67;;;;;;;24.61;70.83;99448.11;1677101;84;21140;-73
2021/07/13 06:19:06;;;;;;;7.83;6.30;;;;;;;24.74;70.77;99449.02;1675325;84;21016;-73
2021/07/13 06:21:33;;;;;;;7.28;5.90;;;;;;;24.84;68.71;99452.34;1660640;84;21037;-74
2021/07/13 06:24:00;;;;;;;9.90;6.12;;;;;;;24.84;67.25;99460.13;1671253;84;21496;-74
2021/07/13 06:26:28;;;;;;;9.38;6.28;;;;;;;24.82;67.88;99463.98;1650427;84;21226;-73
2021/07/13 06:28:56;;;;;;;10.18;6.15;;;;;;;24.87;68.08;99467.72;1644642;86;21151;-72
2021/07/13 06:31:23;;;;;;;6.72;5.20;;;;;;;24.97;68.05;99462.66;1660051;84;21004;-73
2021/07/13 06:33:50;;;;;;;5.50;4.92;;;;;;;24.98;66.96;99462.84;1676560;85;20968;-73
2021/07/13 06:36:17;;;;;;;8.03;4.60;;;;;;;24.92;66.51;99459.46;1675556;84;21032;-73
2021/07/13 06:38:43;;;;;;;7.33;5.40;;;;;;;24.87;66.14;99459.91;1690681;84;20974;-71
2021/07/13 06:41:10;;;;;;;6.72;5.47;;;;;;;24.88;66.17;99451.67;1710722;83;21127;-72
2021/07/13 06:43:37;;;;;;;6.22;5.47;;;;;;;24.94;66.01;99459.84;1685967;84;21420;-72
2021/07/13 06:46:03;;;;;;;6.15;5.25;;;;;;;24.98;65.49;99455.83;1692994;84;21066;-71
2021/07/13 06:48:31;;;;;;;9.08;6.58;;;;;;;25.06;65.37;99460.77;1658098;84;21573;-70
2021/07/13 06:50:58;;;;;;;7.92;6.12;;;;;;;25.12;65.34;99461.92;1695503;84;21026;-72
2021/07/13 06:53:25;;;;;;;9.55;7.65;;;;;;;25.18;64.28;99462.27;1675513;84;23243;-75
2021/07/13 06:55:52;;;;;;;12.53;7.10;;;;;;;25.15;65.13;99456.88;1631808;84;21176;-71
2021/07/13 06:58:18;;;;;;;6.90;4.83;;;;;;;25.15;66.03;99460.29;1629643;86;21147;-72
2021/07/13 07:00:45;;;;;;;9.10;6.80;;;;;;;25.24;66.80;99467.02;1596595;87;22193;-72
2021/07/13 07:03:12;;;;;;;10.15;8.35;;;;;;;25.33;65.15;99463.72;1583256;87;21157;-73
2021/07/13 07:05:40;;;;;;;17.02;11.88;;;;;;;25.38;65.80;99463.27;1662661;86;21605;-73
2021/07/13 07:08:08;;;;;;;8.15;5.80;;;;;;;25.46;63.91;99457.73;1668532;84;21535;-75
2021/07/13 07:10:35;;;;;;;5.78;5.08;;;;;;;25.54;63.88;99457.84;1666412;84;21023;-71
2021/07/13 07:13:02;;;;;;;5.10;4.47;;;;;;;25.64;63.28;99458.97;1641680;86;21563;-72
2021/07/13 07:15:29;;;;;;;7.42;5.50;;;;;;;25.75;62.10;99457.44;1593432;87;21041;-72
2021/07/13 07:17:56;;;;;;;10.85;7.22;;;;;;;25.81;60.56;99459.97;1595422;89;21135;-72
2021/07/13 07:20:27;;;;;;;8.00;5.47;;;;;;;25.88;61.02;99466.91;1605776;87;21465;-73
2021/07/13 07:22:58;;;;;;;9.35;5.80;;;;;;;25.93;60.73;99463.64;1590062;89;21029;-72
2021/07/13 07:25:27;;;;;;;17.20;9.73;;;;;;;26.00;58.83;99461.50;1592576;89;21065;-72
2021/07/13 07:27:56;;;;;;;11.22;7.53;;;;;;;26.12;58.33;99453.11;1605672;89;21013;-73
2021/07/13 07:30:22;;;;;;;11.57;6.28;;;;;;;26.17;58.72;99449.82;1603775;88;21278;-72
2021/07/13 07:32:49;;;;;;;8.68;6.12;;;;;;;26.24;58.81;99444.09;1613474;87;21703;-71
2021/07/13 07:35:15;;;;;;;11.05;5.83;;;;;;;26.31;58.93;99451.06;1612651;87;20966;-72
2021/07/13 07:37:42;;;;;;;6.78;4.87;;;;;;;26.36;57.90;99451.80;1615750;88;21064;-73
2021/07/13 07:40:17;;;;;;;7.05;4.83;;;;;;;26.38;58.36;99454.98;1613839;88;21091;-72
2021/07/13 07:42:41;;;;;;;7.00;5.53;;;;;;;26.39;58.37;99450.34;1614664;88;21141;-73
2021/07/13 07:45:09;;;;;;;4.90;4.50;;;;;;;26.43;58.24;99449.68;1619173;88;21007;-72
2021/07/13 07:47:35;;;;;;;8.20;5.65;;;;;;;26.57;59.55;99438.81;1611627;88;21495;-70
2021/07/13 07:50:04;;;;;;;14.93;5.53;;;;;;;26.80;60.42;99434.58;1610589;88;21004;-71
2021/07/13 07:52:31;;;;;;;20.43;8.75;;;;;;;27.06;59.05;99437.19;1659832;85;21121;-72
2021/07/13 07:54:59;;;;;;;5.60;5.10;;;;;;;27.25;58.66;99433.58;1674768;84;21146;-72
2021/07/13 07:57:25;;;;;;;9.43;5.58;;;;;;;27.46;57.28;99442.86;1671030;84;20873;-71
2021/07/13 07:59:52;;;;;;;7.47;5.03;;;;;;;27.61;56.28;99444.20;1677482;85;21517;-72
2021/07/13 08:02:20;;;;;;;5.08;3.95;;;;;;;27.68;55.29;99439.83;1676571;84;21117;-71
2021/07/13 08:04:47;;;;;;;6.22;4.35;;;;;;;27.70;53.19;99437.37;1673608;84;21065;-71
2021/07/13 08:07:14;;;;;;;6.10;4.22;;;;;;;27.70;52.76;99433.14;1685140;83;21322;-74
2021/07/13 08:09:40;;;;;;;10.80;4.90;;;;;;;27.73;53.96;99432.24;1673541;83;21067;-74
2021/07/13 08:12:10;;;;;;;15.05;5.75;;;;;;;27.84;53.28;99429.20;1685790;83;21009;-73
2021/07/13 08:14:37;;;;;;;18.05;5.83;;;;;;;27.91;52.78;99431.25;1617394;85;21037;-74
2021/07/13 08:17:04;;;;;;;11.55;5.60;;;;;;;27.98;51.72;99426.07;1681204;83;21039;-72
2021/07/13 08:19:38;;;;;;;10.72;5.03;;;;;;;28.10;53.24;99424.61;1683176;83;21616;-73
2021/07/13 08:22:02;;;;;;;8.05;5.10;;;;;;;28.35;52.97;99433.92;1676238;83;21107;-75
2021/07/13 08:24:29;;;;;;;8.88;4.65;;;;;;;28.61;52.05;99430.06;1664356;83;21058;-75
2021/07/13 08:26:55;;;;;;;8.70;4.95;;;;;;;28.98;52.02;99432.17;1676740;84;21058;-75
2021/07/13 08:29:22;;;;;;;11.28;5.22;;;;;;;29.29;50.02;99430.53;1653805;84;21069;-77
2021/07/13 08:31:48;;;;;;;13.40;5.17;;;;;;;29.58;49.72;99429.92;1654432;84;21156;-78
2021/07/13 08:34:14;;;;;;;20.32;5.67;;;;;;;29.87;48.29;99428.47;1686421;83;21026;-76
2021/07/13 08:36:41;;;;;;;9.85;4.10;;;;;;;30.14;48.50;99435.14;1657637;83;21033;-77
2021/07/13 08:39:07;;;;;;;11.43;3.90;;;;;;;30.30;44.76;99434.25;1621747;86;21006;-76
2021/07/13 08:41:33;;;;;;;5.67;4.10;;;;;;;30.34;44.37;99434.93;1672163;83;21001;-75
2021/07/13 08:44:00;;;;;;;6.47;4.03;;;;;;;30.37;45.61;99428.98;1677068;83;21742;-71
2021/07/13 08:46:27;;;;;;;8.90;4.33;;;;;;;30.55;45.09;99430.63;1651206;85;21017;-75
2021/07/13 08:48:54;;;;;;;8.03;4.65;;;;;;;30.76;43.75;99434.17;1641123;85;20937;-73
2021/07/13 08:51:22;;;;;;;12.58;4.58;;;;;;;30.92;43.80;99433.86;1654751;85;21561;-75
2021/07/13 08:53:49;;;;;;;6.50;3.87;;;;;;;31.03;43.13;99432.88;1654096;85;21107;-74
2021/07/13 08:56:16;;;;;;;6.08;3.50;;;;;;;31.09;43.21;99428.21;1660460;85;21070;-74
2021/07/13 08:58:43;;;;;;;9.43;3.77;;;;;;;31.10;42.28;99424.92;1642761;85;21804;-74
2021/07/13 09:01:10;;;;;;;5.87;3.20;;;;;;;31.10;41.45;99427.75;1642751;86;21037;-73
2021/07/13 09:03:54;;;;;;;8.23;3.80;;;;;;;31.27;41.89;99427.59;1637269;86;21011;-74
2021/07/13 09:06:22;;;;;;;10.03;3.45;;;;;;;31.33;40.90;99434.26;1653760;85;21096;-72
2021/07/13 09:08:51;;;;;;;4.55;2.80;;;;;;;31.41;40.70;99427.08;1652410;85;21785;-70
2021/07/13 09:11:21;;;;;;;3.72;3.22;;;;;;;31.48;39.61;99430.45;1652360;85;21006;-73
2021/07/13 09:13:54;;;;;;;4.57;3.57;;;;;;;31.58;41.62;99424.84;1659331;85;20992;-72
2021/07/13 09:16:25;;;;;;;3.47;3.17;;;;;;;31.70;39.68;99424.02;1644786;85;21559;-74
2021/07/13 09:18:54;;;;;;;4.20;3.80;;;;;;;31.70;39.05;99421.97;1624314;86;21598;-73
2021/07/13 09:21:33;;;;;;;4.20;3.62;;;;;;;31.71;40.35;99422.77;1604381;88;20932;-76
2021/07/13 09:24:21;;;;;;;2.98;2.77;;;;;;;31.76;38.05;99414.45;1581030;88;21622;-75
2021/07/13 09:26:56;;;;;;;8.30;3.87;;;;;;;31.63;39.66;99412.28;1605774;88;20884;-70
2021/07/13 09:29:40;;;;;;;5.10;3.65;;;;;;;31.64;40.79;99414.48;1590279;89;21062;-74
2021/07/13 09:32:31;;;;;;;3.50;3.20;;;;;;;31.78;40.61;99414.75;1607107;88;21066;-72
2021/07/13 09:35:11;;;;;;;3.75;2.95;;;;;;;31.91;39.24;99420.97;1599003;89;21796;-71
2021/07/13 09:37:39;;;;;;;3.42;3.10;;;;;;;31.87;39.99;99425.36;1596482;88;21539;-72
2021/07/13 09:40:09;;;;;;;3.95;3.55;;;;;;;31.90;40.12;99418.77;1625162;87;20926;-72
2021/07/13 09:42:51;;;;;;;3.00;2.80;;;;;;;32.01;40.02;99420.56;1665679;85;21163;-71
2021/07/13 09:45:31;;;;;;;3.30;2.97;;;;;;;32.22;38.70;99423.22;1607204;87;20914;-73
2021/07/13 09:48:01;;;;;;;5.23;3.40;;;;;;;32.36;39.45;99416.16;1580801;89;22400;-73
2021/07/13 09:50:46;;;;;;;5.78;3.10;;;;;;;32.55;39.59;99417.81;1588903;88;21484;-73
2021/07/13 09:53:15;;;;;;;4.83;3.77;;;;;;;32.74;37.96;99422.28;1600894;89;20945;-72
2021/07/13 09:55:42;;;;;;;5.53;3.72;;;;;;;32.90;38.12;99416.19;1593670;89;21086;-72
2021/07/13 09:58:23;;;;;;;3.40;2.95;;;;;;;32.85;37.47;99415.39;1596311;89;21041;-73
2021/07/13 10:00:54;;;;;;;3.98;3.58;;;;;;;32.92;37.77;99417.94;1603499;87;21201;-74
2021/07/13 10:03:21;;;;;;;4.17;3.35;;;;;;;33.14;37.67;99420.78;1589537;87;21541;-73
2021/07/13 10:05:49;;;;;;;7.05;3.47;;;;;;;33.18;36.74;99422.68;1631002;86;21010;-73
2021/07/13 10:08:17;;;;;;;3.95;3.55;;;;;;;32.94;37.85;99416.80;1637668;86;21138;-73
2021/07/13 10:10:46;;;;;;;5.12;3.60;;;;;;;32.80;38.81;99420.44;1684046;83;20974;-73
2021/07/13 10:13:16;;;;;;;3.52;3.22;;;;;;;32.87;39.45;99423.61;1643759;85;21807;-73
2021/07/13 10:15:48;;;;;;;6.60;3.30;;;;;;;32.91;36.91;99420.62;1588956;89;21074;-73
2021/07/13 10:18:16;;;;;;;5.78;3.20;;;;;;;32.85;39.27;99415.39;1653366;86;21133;-73
2021/07/13 10:20:44;;;;;;;4.33;3.37;;;;;;;33.07;38.53;99413.19;1641125;86;21445;-72
2021/07/13 10:23:12;;;;;;;3.90;3.50;;;;;;;33.34;39.00;99417.50;1629466;86;21060;-73
2021/07/13 10:25:42;;;;;;;3.42;3.12;;;;;;;33.58;38.18;99411.14;1587032;89;21592;-75
2021/07/13 10:28:12;;;;;;;3.70;3.30;;;;;;;33.70;38.98;99415.23;1616467;87;21545;-76
2021/07/13 10:30:46;;;;;;;3.95;3.58;;;;;;;33.70;39.55;99416.66;1621441;87;21037;-75
2021/07/13 10:33:29;;;;;;;5.47;3.42;;;;;;;33.73;39.05;99417.77;1612086;87;20998;-73
2021/07/13 10:35:59;;;;;;;5.15;3.62;;;;;;;33.78;39.32;99418.55;1622340;87;21022;-73
2021/07/13 10:38:25;;;;;;;3.60;3.30;;;;;;;33.94;38.20;99418.86;1610727;86;21778;-73
2021/07/13 10:40:58;;;;;;;3.98;3.33;;;;;;;34.01;39.20;99425.64;1615106;87;21016;-72
2021/07/13 10:43:22;;;;;;;3.72;3.42;;;;;;;34.17;40.04;99428.09;1585180;89;21147;-75
2021/07/13 10:46:08;;;;;;;5.70;3.85;;;;;;;34.30;39.36;99432.98;1645523;85;20978;-72
2021/07/13 10:48:37;;;;;;;7.33;3.87;;;;;;;34.34;37.78;99425.06;1650936;85;21662;-73
2021/07/13 10:51:10;;;;;;;3.90;3.25;;;;;;;34.46;37.26;99426.12;1646472;86;21837;-73
2021/07/13 10:53:45;;;;;;;4.75;3.17;;;;;;;34.49;37.60;99429.43;1646868;86;21072;-73
2021/07/13 10:56:17;;;;;;;8.15;3.37;;;;;;;34.54;36.65;99419.44;1630510;86;21163;-74
2021/07/13 10:58:50;;;;;;;4.50;3.42;;;;;;;34.44;36.89;99425.81;1643319;86;21077;-74
2021/07/13 11:01:26;;;;;;;5.22;3.40;;;;;;;34.24;37.60;99422.70;1654603;85;21156;-74
2021/07/13 11:03:55;;;;;;;3.92;3.52;;;;;;;34.22;37.29;99423.81;1638404;85;21636;-72
2021/07/13 11:06:44;;;;;;;3.50;3.20;;;;;;;34.36;36.37;99428.85;1617638;86;21024;-71
2021/07/13 11:09:27;;;;;;;12.05;4.00;;;;;;;34.18;36.06;99427.47;1669899;84;38545;-75
2021/07/13 11:12:10;;;;;;;5.53;3.37;;;;;;;33.90;36.42;99426.14;1625466;86;21430;-71
2021/07/13 11:14:52;;;;;;;4.30;3.90;;;;;;;33.84;38.17;99415.88;1620256;87;20887;-72
2021/07/13 11:17:21;;;;;;;;;;;;;;;33.85;37.09;99422.52;1626764;87;21162;-73
2021/07/13 11:19:49;;;;;;;4.05;3.67;;;;;;;33.64;38.40;99417.14;1594425;87;20137;-71
2021/07/13 11:22:17;;;;;;;4.72;3.58;;;;;;;33.55;37.61;99413.52;1616499;87;21024;-72
2021/07/13 11:24:44;;;;;;;3.60;3.25;;;;;;;33.63;37.91;99419.04;1612749;87;21517;-72
2021/07/13 11:27:11;;;;;;;3.95;3.30;;;;;;;33.74;37.95;99415.07;1610453;87;21060;-71
2021/07/13 11:29:39;;;;;;;6.45;3.95;;;;;;;33.93;36.97;99413.01;1642743;86;21140;-71
2021/07/13 11:32:07;;;;;;;5.17;3.33;;;;;;;34.19;36.70;99415.59;1639518;86;21081;-73
2021/07/13 11:34:36;;;;;;;3.47;3.17;;;;;;;34.41;36.07;99410.47;1608649;87;21038;-74
2021/07/13 11:37:06;;;;;;;4.12;3.72;;;;;;;34.58;36.38;99406.59;1641486;86;21427;-74
2021/07/13 11:39:38;;;;;;;4.05;3.40;;;;;;;34.69;36.73;99409.66;1647676;86;21079;-73